8VA8 weather

Public forecast

Using degrees Fahrenheit for public forecast. Weather courtesy of forecast.io.

Closest aviation weather report (METAR) to Mary Immaculate Hospital Heliport

Closest report is Newport News Williamsburg International Airport, 1.1 nm (2.1 km) SE. Retrieved 2020/08/15 16:21 UTC (11 minutes ago):

KPHF 151621Z 10009G16KT 1/2SM +RA BKN007 BKN011 OVC046 25/22 A2993 RMK AO2 P0056 T02500222

Closest aviation forecast (TAF) to Mary Immaculate Hospital Heliport

Closest forecast is Newport News Williamsburg International Airport, 1.1 nm (2.1 km) SE. Retrieved 2020/08/15 12:24 UTC (4 hours ago):

TAF KPHF 151121Z 1512/1612 07007KT 6SM -RA BKN025 TEMPO 1512/1513 2SM RA BR BKN020 FM151700 08010KT 6SM -RA BKN040 FM152000 09012KT 6SM -RA BKN030 FM160200 09009KT 4SM -RA OVC020 FM160300 09009KT 4SM -RA OVC015